Time;durP1;ratioP1;P1;durP2;ratioP2;P2;SDS_P1;SDS_P2;PMS_P1;PMS_P2;Temp;Humidity;BMP_temperature;BMP_pressure;BME280_temperature;BME280_humidity;BME280_pressure;Samples;Min_cycle;Max_cycle;Signal;HPM_P1;HPM_P2
2022/07/03 00:01:22;;;;;;;28.07;26.43;;;19.20;74.80;;;;;;5005325;28;20938;-70
2022/07/03 00:03:49;;;;;;;28.93;27.03;;;19.10;75.10;;;;;;5010451;28;20548;-68
2022/07/03 00:06:17;;;;;;;27.30;25.87;;;19.10;75.50;;;;;;5008614;28;20461;-68
2022/07/03 00:08:44;;;;;;;27.33;25.83;;;19.10;75.40;;;;;;5008290;28;20611;-68
2022/07/03 00:11:11;;;;;;;28.43;26.50;;;19.10;75.00;;;;;;5008469;28;20449;-68
2022/07/03 00:13:39;;;;;;;26.83;25.33;;;19.10;75.10;;;;;;5010609;28;20465;-68
2022/07/03 00:16:06;;;;;;;26.83;25.33;;;19.10;75.10;;;;;;5006993;28;20662;-68
2022/07/03 00:18:33;;;;;;;26.80;25.40;;;19.10;75.10;;;;;;5009591;28;20566;-68
2022/07/03 00:21:02;;;;;;;26.83;25.33;;;19.10;75.30;;;;;;5006626;28;20588;-68
2022/07/03 00:23:30;;;;;;;26.67;25.20;;;19.20;75.20;;;;;;5009434;28;20457;-67
2022/07/03 00:26:01;;;;;;;27.67;26.17;;;19.10;75.40;;;;;;5006682;28;20453;-68
2022/07/03 00:28:29;;;;;;;28.07;26.50;;;19.10;75.60;;;;;;5006961;28;20473;-68
2022/07/03 00:30:59;;;;;;;28.93;26.57;;;19.00;75.70;;;;;;5003925;28;20466;-68
2022/07/03 00:33:29;;;;;;;28.13;26.50;;;19.00;76.00;;;;;;5001068;28;20473;-68
2022/07/03 00:35:57;;;;;;;26.97;25.57;;;18.90;76.40;;;;;;5004437;28;20450;-68
2022/07/03 00:38:24;;;;;;;26.30;24.97;;;18.90;76.40;;;;;;5008257;28;20485;-68
2022/07/03 00:40:51;;;;;;;27.10;25.50;;;18.80;76.50;;;;;;5007534;28;20460;-68
2022/07/03 00:43:18;;;;;;;27.20;25.60;;;18.90;76.50;;;;;;5007707;28;20552;-68
2022/07/03 00:45:49;;;;;;;27.03;25.40;;;18.80;76.70;;;;;;5008050;28;20461;-68
2022/07/03 00:48:19;;;;;;;27.33;25.93;;;18.80;76.70;;;;;;5009322;28;20488;-68
2022/07/03 00:50:48;;;;;;;27.80;26.30;;;18.80;76.70;;;;;;5005676;28;20458;-68
2022/07/03 00:53:23;;;;;;;27.30;25.80;;;18.80;76.70;;;;;;5009511;28;20457;-68
2022/07/03 00:55:51;;;;;;;27.93;26.33;;;18.80;76.80;;;;;;5008422;28;20540;-68
2022/07/03 00:58:18;;;;;;;27.57;25.43;;;18.70;77.20;;;;;;5008466;28;20592;-68
2022/07/03 01:00:46;;;;;;;25.80;24.40;;;18.70;77.20;;;;;;5004533;28;20457;-68
2022/07/03 01:03:18;;;;;;;26.47;25.07;;;18.70;77.40;;;;;;5006423;28;20465;-68
2022/07/03 01:05:46;;;;;;;26.70;25.13;;;18.60;77.30;;;;;;5006690;28;20565;-68
2022/07/03 01:08:22;;;;;;;26.23;24.73;;;18.60;77.50;;;;;;5008902;28;20469;-67
2022/07/03 01:10:59;;;;;;;25.77;24.37;;;18.70;77.50;;;;;;5006481;28;20449;-67
2022/07/03 01:13:35;;;;;;;26.27;24.90;;;18.60;77.50;;;;;;5008394;28;21050;-68
2022/07/03 01:16:07;;;;;;;26.20;24.83;;;18.60;77.50;;;;;;5003325;28;22859;-69
2022/07/03 01:18:45;;;;;;;26.00;24.60;;;18.60;77.50;;;;;;5005735;28;20481;-69
2022/07/03 01:21:23;;;;;;;26.50;25.00;;;18.60;77.60;;;;;;5005635;28;20488;-70
2022/07/03 01:24:39;;;;;;;25.97;24.57;;;18.60;77.90;;;;;;5004377;28;20552;-70
2022/07/03 01:27:14;;;;;;;27.07;25.60;;;18.60;77.60;;;;;;5007365;28;20882;-72
2022/07/03 01:29:50;;;;;;;27.10;25.60;;;18.50;77.90;;;;;;5003039;28;20543;-70
2022/07/03 01:32:18;;;;;;;27.27;25.67;;;18.50;78.00;;;;;;5006897;28;20553;-71
2022/07/03 01:34:51;;;;;;;26.13;24.43;;;18.50;78.00;;;;;;5006715;28;21240;-70
2022/07/03 01:37:20;;;;;;;26.00;24.60;;;18.60;78.10;;;;;;5004824;28;21438;-70
2022/07/03 01:39:52;;;;;;;25.87;24.57;;;18.50;78.20;;;;;;5009665;28;20469;-70
2022/07/03 01:42:22;;;;;;;25.77;24.47;;;18.50;78.30;;;;;;5006362;28;20567;-70
2022/07/03 01:44:52;;;;;;;26.07;24.70;;;18.40;78.50;;;;;;5006631;28;20504;-71
2022/07/03 01:47:19;;;;;;;25.10;23.60;;;18.40;78.60;;;;;;5006216;28;20484;-70
2022/07/03 01:49:48;;;;;;;25.50;24.20;;;18.40;78.70;;;;;;5009093;28;20521;-71
2022/07/03 01:52:17;;;;;;;26.07;24.77;;;18.40;78.60;;;;;;5003615;28;20932;-70
2022/07/03 01:54:47;;;;;;;25.50;24.20;;;18.40;78.80;;;;;;5006979;28;20467;-70
2022/07/03 01:57:14;;;;;;;25.97;24.67;;;18.30;78.90;;;;;;5005804;28;20483;-68
2022/07/03 01:59:42;;;;;;;25.43;24.10;;;18.30;79.10;;;;;;5005394;28;21307;-68
2022/07/03 02:02:19;;;;;;;24.90;23.50;;;18.40;78.90;;;;;;5003709;28;20496;-68
2022/07/03 02:04:59;;;;;;;25.53;24.23;;;18.40;78.80;;;;;;5006568;28;20461;-68
2022/07/03 02:07:40;;;;;;;25.50;24.20;;;18.40;78.90;;;;;;5006141;28;20481;-68
2022/07/03 02:10:09;;;;;;;24.97;23.73;;;18.40;79.00;;;;;;5007854;28;20551;-67
2022/07/03 02:12:40;;;;;;;25.20;23.90;;;18.40;78.80;;;;;;5003913;28;20539;-68
2022/07/03 02:15:11;;;;;;;25.30;24.00;;;18.40;78.80;;;;;;5000034;28;20453;-68
2022/07/03 02:17:39;;;;;;;25.07;23.77;;;18.30;79.00;;;;;;5004353;28;20487;-68
2022/07/03 02:20:08;;;;;;;25.23;23.83;;;18.30;79.10;;;;;;5007833;28;20474;-68
2022/07/03 02:22:37;;;;;;;25.13;23.83;;;18.30;79.20;;;;;;5005759;28;20918;-68
2022/07/03 02:25:06;;;;;;;24.50;23.30;;;18.30;79.10;;;;;;4999829;28;20461;-68
2022/07/03 02:27:43;;;;;;;26.83;24.90;;;18.30;79.20;;;;;;4997166;28;20911;-68
2022/07/03 02:30:12;;;;;;;25.37;23.97;;;18.30;79.30;;;;;;5006584;28;20827;-68
2022/07/03 02:32:44;;;;;;;25.80;24.40;;;18.30;79.30;;;;;;5004424;28;20480;-68
2022/07/03 02:35:14;;;;;;;25.70;24.40;;;18.30;79.30;;;;;;5008746;28;20453;-68
2022/07/03 02:37:48;;;;;;;25.17;23.60;;;18.30;79.30;;;;;;5005904;28;20497;-68
2022/07/03 02:40:25;;;;;;;25.90;24.60;;;18.30;79.30;;;;;;5007251;28;20863;-68
2022/07/03 02:43:11;;;;;;;24.30;22.87;;;18.30;79.40;;;;;;5006208;28;21629;-68
2022/07/03 02:45:44;;;;;;;24.77;23.27;;;18.30;79.50;;;;;;5004285;28;20547;-68
2022/07/03 02:48:18;;;;;;;24.80;23.40;;;18.30;79.50;;;;;;5005896;28;20552;-68
2022/07/03 02:50:51;;;;;;;24.87;23.27;;;18.30;79.60;;;;;;5002738;28;20492;-68
2022/07/03 02:53:27;;;;;;;24.53;23.00;;;18.30;79.60;;;;;;5003743;28;20488;-68
2022/07/03 02:56:05;;;;;;;24.07;22.87;;;18.30;79.70;;;;;;5005066;28;20453;-68
2022/07/03 02:58:54;;;;;;;24.33;23.03;;;18.20;80.00;;;;;;5006643;28;20491;-68
2022/07/03 03:01:34;;;;;;;24.60;23.20;;;18.20;80.30;;;;;;5002870;28;20545;-68
2022/07/03 03:04:09;;;;;;;24.70;23.40;;;18.20;80.20;;;;;;5006655;28;20543;-68
2022/07/03 03:06:38;;;;;;;23.90;22.70;;;18.20;80.30;;;;;;4999658;28;20461;-68
2022/07/03 03:09:08;;;;;;;25.93;24.27;;;18.20;80.30;;;;;;5005485;28;20481;-68
2022/07/03 03:11:44;;;;;;;24.83;23.63;;;18.10;80.40;;;;;;5005507;28;20465;-70
2022/07/03 03:14:14;;;;;;;24.80;23.60;;;18.20;80.40;;;;;;5005744;28;20488;-70
2022/07/03 03:16:51;;;;;;;24.43;23.13;;;18.10;80.40;;;;;;5007289;28;20532;-70
2022/07/03 03:19:22;;;;;;;24.80;23.50;;;18.10;80.60;;;;;;5007281;28;20552;-68
2022/07/03 03:21:58;;;;;;;24.53;23.33;;;18.10;80.50;;;;;;5003674;28;20485;-68
2022/07/03 03:24:26;;;;;;;24.43;23.07;;;18.10;80.50;;;;;;5006249;28;20462;-67
2022/07/03 03:26:53;;;;;;;24.83;23.23;;;18.10;80.60;;;;;;5005216;28;20952;-68
2022/07/03 03:29:20;;;;;;;24.60;23.40;;;18.20;80.50;;;;;;5006831;28;20465;-68
2022/07/03 03:31:49;;;;;;;24.40;23.10;;;18.20;80.50;;;;;;5009381;28;20568;-68
2022/07/03 03:34:16;;;;;;;24.47;23.17;;;18.10;80.70;;;;;;5011476;28;21002;-68
2022/07/03 03:36:43;;;;;;;24.27;22.97;;;18.10;80.70;;;;;;5009984;28;20477;-68
2022/07/03 03:39:10;;;;;;;24.67;23.40;;;18.20;80.50;;;;;;5010258;28;21258;-68
2022/07/03 03:41:39;;;;;;;24.97;23.67;;;18.20;80.50;;;;;;5001160;28;20863;-68
2022/07/03 03:44:06;;;;;;;24.70;23.40;;;18.20;80.50;;;;;;5010618;28;20540;-68
2022/07/03 03:46:33;;;;;;;24.33;23.03;;;18.20;80.40;;;;;;5009919;28;21202;-68
2022/07/03 03:49:02;;;;;;;24.90;23.70;;;18.30;80.40;;;;;;5010559;28;21328;-68
2022/07/03 03:51:29;;;;;;;25.10;23.50;;;18.40;80.20;;;;;;5007232;28;20986;-68
2022/07/03 03:53:56;;;;;;;24.40;22.90;;;18.60;79.90;;;;;;5009471;28;20465;-68
2022/07/03 03:56:23;;;;;;;25.20;23.70;;;18.80;79.40;;;;;;5008595;28;20461;-68
2022/07/03 03:58:50;;;;;;;24.70;23.50;;;19.20;78.10;;;;;;5009812;28;20584;-69
2022/07/03 04:01:17;;;;;;;25.37;24.07;;;19.60;76.40;;;;;;5007046;28;20457;-68
2022/07/03 04:03:44;;;;;;;25.20;23.90;;;20.10;74.80;;;;;;5009968;28;20489;-67
2022/07/03 04:06:12;;;;;;;25.83;24.53;;;20.60;73.00;;;;;;5009580;28;20457;-68
2022/07/03 04:08:39;;;;;;;25.30;24.00;;;20.80;72.10;;;;;;5009379;28;21261;-68
2022/07/03 04:11:06;;;;;;;25.40;24.00;;;20.70;72.00;;;;;;5007709;28;20557;-68
2022/07/03 04:13:33;;;;;;;25.30;23.90;;;20.60;72.60;;;;;;5009712;28;20454;-68
2022/07/03 04:16:00;;;;;;;25.50;24.10;;;20.50;72.90;;;;;;5010643;28;20472;-68
2022/07/03 04:18:27;;;;;;;25.50;24.20;;;20.40;73.00;;;;;;5009338;28;20573;-68
2022/07/03 04:20:54;;;;;;;25.80;24.50;;;20.20;73.50;;;;;;5006492;28;20466;-68
2022/07/03 04:23:23;;;;;;;25.80;24.50;;;20.20;73.80;;;;;;5009975;28;20587;-68
2022/07/03 04:25:49;;;;;;;25.27;23.97;;;20.20;73.80;;;;;;5007723;28;20573;-67
2022/07/03 04:28:16;;;;;;;25.80;24.40;;;20.10;74.10;;;;;;5010358;28;20569;-68
2022/07/03 04:30:43;;;;;;;26.00;24.50;;;20.10;74.30;;;;;;5007550;28;20593;-68
2022/07/03 04:33:10;;;;;;;25.73;24.20;;;20.00;74.50;;;;;;5010261;28;20573;-67
2022/07/03 04:35:38;;;;;;;25.20;23.80;;;20.00;74.60;;;;;;5003602;28;20457;-68
2022/07/03 04:38:05;;;;;;;25.60;24.30;;;20.00;74.80;;;;;;5009297;28;20489;-68
2022/07/03 04:40:33;;;;;;;25.80;24.30;;;20.00;74.60;;;;;;5004750;28;20577;-70
2022/07/03 04:43:00;;;;;;;25.93;24.43;;;20.00;74.60;;;;;;4999142;28;20482;-70
2022/07/03 04:45:27;;;;;;;25.83;24.43;;;20.00;74.60;;;;;;5009738;28;20466;-70
2022/07/03 04:47:54;;;;;;;24.80;23.50;;;20.00;74.70;;;;;;5009301;28;20914;-70
2022/07/03 04:50:21;;;;;;;25.40;24.10;;;20.10;74.60;;;;;;5007619;28;20541;-70
2022/07/03 04:52:48;;;;;;;25.63;24.23;;;20.10;74.70;;;;;;5009357;28;20462;-70
2022/07/03 04:55:15;;;;;;;25.53;24.13;;;20.20;74.50;;;;;;5008668;28;20468;-70
2022/07/03 04:57:43;;;;;;;25.00;23.70;;;20.10;74.70;;;;;;5008256;28;20840;-68
2022/07/03 05:00:11;;;;;;;24.70;23.40;;;20.20;74.50;;;;;;5005638;28;20460;-68
2022/07/03 05:02:38;;;;;;;25.70;24.30;;;20.30;74.50;;;;;;5008921;28;20483;-68
2022/07/03 05:05:05;;;;;;;25.83;24.20;;;20.30;74.40;;;;;;5008175;28;20469;-68
2022/07/03 05:07:32;;;;;;;26.00;24.70;;;20.40;74.30;;;;;;5007048;28;21050;-68
2022/07/03 05:09:59;;;;;;;25.60;24.20;;;20.40;74.30;;;;;;5008081;28;20537;-68
2022/07/03 05:12:26;;;;;;;25.93;24.53;;;20.50;74.30;;;;;;5008707;28;20476;-68
2022/07/03 05:14:55;;;;;;;25.63;24.23;;;20.60;74.00;;;;;;5008106;28;20469;-68
2022/07/03 05:17:22;;;;;;;26.30;24.40;;;20.60;74.00;;;;;;5007724;28;20578;-68
2022/07/03 05:20:23;;;;;;;26.30;24.90;;;20.70;73.90;;;;;;5007167;28;20485;-68
2022/07/03 05:22:35;;;;;;;25.10;23.80;;;20.80;73.70;;;;;;5006301;28;20463;-70
2022/07/03 05:25:02;;;;;;;25.20;23.70;;;20.90;73.60;;;;;;5009387;28;20464;-70
2022/07/03 05:27:29;;;;;;;25.40;24.10;;;21.00;73.40;;;;;;5006640;28;20857;-70
2022/07/03 05:29:57;;;;;;;25.50;24.20;;;21.10;73.20;;;;;;5006475;28;20472;-70
2022/07/03 05:32:24;;;;;;;25.90;24.50;;;21.20;72.70;;;;;;5007462;28;20948;-70
2022/07/03 05:34:51;;;;;;;25.30;23.90;;;21.30;72.60;;;;;;5008419;28;21054;-71
2022/07/03 05:37:18;;;;;;;25.60;24.30;;;21.40;72.40;;;;;;5007145;28;20601;-72
2022/07/03 05:39:45;;;;;;;26.00;24.70;;;21.40;72.30;;;;;;5007037;28;20590;-70
2022/07/03 05:42:12;;;;;;;25.77;24.47;;;21.40;72.20;;;;;;5008397;28;20456;-71
2022/07/03 05:44:39;;;;;;;26.17;24.87;;;21.50;72.10;;;;;;5007596;28;20533;-70
2022/07/03 05:47:07;;;;;;;25.70;24.40;;;21.60;72.00;;;;;;5009093;28;20611;-71
2022/07/03 05:49:34;;;;;;;26.07;24.63;;;21.70;71.90;;;;;;5007087;28;20488;-70
2022/07/03 05:52:01;;;;;;;25.70;24.30;;;21.80;71.90;;;;;;5006597;28;20569;-70
2022/07/03 05:54:28;;;;;;;25.70;24.30;;;21.90;71.80;;;;;;5006545;28;20571;-68
2022/07/03 05:56:55;;;;;;;25.10;23.80;;;22.00;71.20;;;;;;5007696;28;20560;-68
2022/07/03 05:59:22;;;;;;;25.70;24.13;;;22.10;71.20;;;;;;5007680;28;20470;-68
2022/07/03 06:01:50;;;;;;;27.20;25.63;;;22.20;70.80;;;;;;5006290;28;20465;-68
2022/07/03 06:04:18;;;;;;;28.30;26.70;;;22.40;70.40;;;;;;5008885;28;20477;-68
2022/07/03 06:06:45;;;;;;;27.00;25.60;;;22.50;69.90;;;;;;5006812;28;20470;-69
2022/07/03 06:09:12;;;;;;;27.30;25.80;;;22.60;69.30;;;;;;5007243;28;20945;-71
2022/07/03 06:11:39;;;;;;;26.03;24.53;;;22.60;68.50;;;;;;5003957;28;22402;-71
2022/07/03 06:14:06;;;;;;;27.27;25.73;;;22.70;68.40;;;;;;5009646;28;20560;-70
2022/07/03 06:16:33;;;;;;;26.10;24.60;;;22.80;67.90;;;;;;5007039;28;20462;-70
2022/07/03 06:19:00;;;;;;;26.60;25.17;;;23.00;68.20;;;;;;5006666;28;21875;-71
2022/07/03 06:21:28;;;;;;;27.83;26.30;;;23.10;67.30;;;;;;5003923;28;20462;-71
2022/07/03 06:23:55;;;;;;;26.20;24.80;;;23.10;67.50;;;;;;5008205;28;20563;-71
2022/07/03 06:26:22;;;;;;;26.73;25.33;;;23.30;67.20;;;;;;5004881;28;20560;-71
2022/07/03 06:28:49;;;;;;;26.70;25.10;;;23.40;67.00;;;;;;5007863;28;20551;-71
2022/07/03 06:31:16;;;;;;;28.00;26.40;;;23.50;66.40;;;;;;5005102;28;21048;-70
2022/07/03 06:33:43;;;;;;;26.40;25.00;;;23.70;65.70;;;;;;5007539;28;21445;-72
2022/07/03 06:36:10;;;;;;;26.97;25.57;;;23.80;65.40;;;;;;5004159;28;20842;-71
2022/07/03 06:38:38;;;;;;;26.40;25.00;;;23.90;65.10;;;;;;5006781;28;20499;-71
2022/07/03 06:41:05;;;;;;;27.50;26.00;;;24.00;65.10;;;;;;5005283;28;20483;-71
2022/07/03 06:43:32;;;;;;;26.63;25.23;;;24.10;64.40;;;;;;5005271;28;20536;-74
2022/07/03 06:45:59;;;;;;;26.10;24.80;;;24.20;64.10;;;;;;5005385;28;20596;-74
2022/07/03 06:48:26;;;;;;;28.50;26.90;;;24.30;63.30;;;;;;5002249;28;20481;-74
2022/07/03 06:50:53;;;;;;;27.00;25.50;;;24.40;62.80;;;;;;5004819;28;20468;-74
2022/07/03 06:53:20;;;;;;;26.63;25.23;;;24.40;62.50;;;;;;5006871;28;20457;-76
2022/07/03 06:55:48;;;;;;;26.97;25.50;;;24.60;62.00;;;;;;5006319;28;20467;-73
2022/07/03 06:58:15;;;;;;;27.07;25.57;;;24.60;62.10;;;;;;5007249;28;20878;-78
2022/07/03 07:00:42;;;;;;;27.07;25.57;;;24.60;61.90;;;;;;5002746;28;20559;-77
2022/07/03 07:03:09;;;;;;;26.60;25.20;;;24.70;61.10;;;;;;5005189;28;20553;-77
2022/07/03 07:05:36;;;;;;;27.10;25.70;;;24.80;61.10;;;;;;5011709;28;20591;-78
2022/07/03 07:08:03;;;;;;;28.57;26.97;;;24.90;60.70;;;;;;5009603;28;21040;-76
2022/07/03 07:10:30;;;;;;;24.50;23.20;;;25.00;60.10;;;;;;5007171;28;20539;-75
2022/07/03 07:12:59;;;;;;;26.60;25.20;;;25.20;58.10;;;;;;5009288;28;20309;-72
2022/07/03 07:15:25;;;;;;;26.63;25.23;;;25.20;59.00;;;;;;5011722;28;20944;-75
2022/07/03 07:17:52;;;;;;;28.03;26.43;;;25.20;59.70;;;;;;5010348;28;20561;-76
2022/07/03 07:20:19;;;;;;;27.73;26.13;;;25.30;59.60;;;;;;5009943;28;20561;-73
2022/07/03 07:22:46;;;;;;;27.07;25.67;;;25.40;59.60;;;;;;5009239;28;20948;-72
2022/07/03 07:25:13;;;;;;;27.43;25.93;;;25.40;59.60;;;;;;5008972;28;20502;-72
2022/07/03 07:27:40;;;;;;;28.70;27.00;;;25.50;59.30;;;;;;5005631;28;21066;-74
2022/07/03 07:30:10;;;;;;;27.40;26.00;;;25.50;59.30;;;;;;5008691;28;20564;-74
2022/07/03 07:32:37;;;;;;;27.20;25.60;;;25.50;58.60;;;;;;5007825;28;20545;-72
2022/07/03 07:35:05;;;;;;;27.30;25.70;;;25.60;58.50;;;;;;5008788;28;20563;-72
2022/07/03 07:37:32;;;;;;;27.47;25.97;;;25.60;57.90;;;;;;5007164;28;20486;-72
2022/07/03 07:39:59;;;;;;;27.47;25.80;;;25.70;58.00;;;;;;5005169;28;20468;-76
2022/07/03 07:42:27;;;;;;;26.30;24.90;;;25.70;57.70;;;;;;5009364;28;20489;-74
2022/07/03 07:44:54;;;;;;;26.90;25.03;;;25.80;57.00;;;;;;5009802;28;20481;-73
2022/07/03 07:47:23;;;;;;;26.50;25.00;;;26.00;57.20;;;;;;5005805;28;20482;-73
2022/07/03 07:49:50;;;;;;;27.13;25.63;;;26.00;55.20;;;;;;5009692;28;21053;-74
2022/07/03 07:52:16;;;;;;;26.70;25.20;;;26.00;54.60;;;;;;5008086;28;20479;-75
2022/07/03 07:54:43;;;;;;;25.80;24.40;;;26.10;54.60;;;;;;5007902;28;20451;-73
2022/07/03 07:57:10;;;;;;;27.77;26.03;;;26.10;52.10;;;;;;5008423;28;20483;-72
2022/07/03 07:59:37;;;;;;;27.07;25.57;;;26.10;51.40;;;;;;5008181;28;20455;-72
2022/07/03 08:07:34;;;;;;;27.70;26.30;;;26.30;53.30;;;;;;5008024;28;20482;-72
2022/07/03 08:10:01;;;;;;;27.00;25.60;;;26.40;53.40;;;;;;5009115;28;20464;-72
2022/07/03 08:12:28;;;;;;;26.90;25.50;;;26.60;53.70;;;;;;5007832;28;20976;-74
2022/07/03 08:14:55;;;;;;;26.80;25.40;;;26.60;54.10;;;;;;5009831;28;20462;-73
2022/07/03 08:17:22;;;;;;;27.30;25.70;;;26.50;54.50;;;;;;5008272;28;20494;-74
2022/07/03 08:19:51;;;;;;;26.67;25.17;;;26.50;54.50;;;;;;5011155;28;20474;-73
2022/07/03 08:22:17;;;;;;;26.93;25.27;;;26.60;54.20;;;;;;5010703;28;20466;-73
2022/07/03 08:24:44;;;;;;;26.38;24.58;;;26.70;54.20;;;;;;5007348;28;20544;-73
2022/07/03 08:27:11;;;;;;;26.90;25.40;;;26.80;53.70;;;;;;5009076;28;20226;-74
2022/07/03 08:29:38;;;;;;;26.60;25.00;;;26.90;52.90;;;;;;5009056;28;20551;-73
2022/07/03 08:32:07;;;;;;;26.90;25.30;;;26.90;51.50;;;;;;5007213;28;20759;-75
2022/07/03 08:34:34;;;;;;;26.50;24.90;;;27.00;51.60;;;;;;5008543;28;20200;-72
2022/07/03 08:37:02;;;;;;;25.90;24.50;;;27.00;52.10;;;;;;5008089;28;20775;-73
2022/07/03 08:39:29;;;;;;;26.63;24.93;;;27.00;50.30;;;;;;5010995;28;20482;-73
2022/07/03 08:41:57;;;;;;;26.53;25.13;;;27.00;50.00;;;;;;5005979;28;20998;-75
2022/07/03 08:44:26;;;;;;;27.63;25.93;;;27.00;49.00;;;;;;5008245;28;21116;-72
2022/07/03 08:46:53;;;;;;;26.23;24.83;;;27.00;50.00;;;;;;5004917;28;20537;-74
2022/07/03 08:49:21;;;;;;;26.40;24.90;;;27.10;48.80;;;;;;5007308;28;20471;-73
2022/07/03 08:51:48;;;;;;;25.90;24.40;;;27.00;46.80;;;;;;5009504;28;20467;-73
2022/07/03 08:54:16;;;;;;;26.67;24.83;;;27.00;47.80;;;;;;5006870;28;20457;-73
2022/07/03 08:56:44;;;;;;;27.40;25.67;;;27.10;47.20;;;;;;5000295;28;20481;-74
2022/07/03 08:59:11;;;;;;;25.70;24.20;;;27.30;48.20;;;;;;5004585;28;20481;-73
2022/07/03 09:01:41;;;;;;;27.37;25.67;;;27.30;48.00;;;;;;5008602;28;20538;-73
2022/07/03 09:04:12;;;;;;;26.10;24.60;;;27.30;48.90;;;;;;5007997;28;21138;-73
2022/07/03 09:06:41;;;;;;;27.57;26.00;;;27.20;44.00;;;;;;5002583;28;20651;-71
2022/07/03 09:09:09;;;;;;;26.80;25.30;;;27.20;45.30;;;;;;5004677;28;20494;-70
2022/07/03 09:11:38;;;;;;;26.00;24.60;;;27.10;46.30;;;;;;4998391;28;20477;-74
2022/07/03 09:14:06;;;;;;;26.40;24.80;;;27.20;46.20;;;;;;5005464;28;20463;-73
2022/07/03 09:16:36;;;;;;;27.23;25.23;;;27.20;46.30;;;;;;5005250;28;20464;-73
2022/07/03 09:19:04;;;;;;;29.60;28.00;;;27.30;46.40;;;;;;5005075;28;21009;-73
2022/07/03 09:21:38;;;;;;;26.80;25.40;;;27.40;45.90;;;;;;5005446;28;20466;-73
2022/07/03 09:24:06;;;;;;;26.10;24.70;;;27.40;42.90;;;;;;5006829;28;20484;-73
2022/07/03 09:26:34;;;;;;;27.13;25.63;;;27.40;42.90;;;;;;5006523;28;20816;-74
2022/07/03 09:29:03;;;;;;;27.10;25.60;;;27.60;43.60;;;;;;5005827;28;20978;-73
2022/07/03 09:31:31;;;;;;;28.07;26.47;;;27.70;43.50;;;;;;5006222;28;20882;-74
2022/07/03 09:34:00;;;;;;;29.60;27.80;;;27.70;45.20;;;;;;5000584;28;20661;-73
2022/07/03 09:36:41;;;;;;;27.30;25.80;;;27.70;44.40;;;;;;5005600;28;20465;-79
2022/07/03 09:39:20;;;;;;;29.20;27.40;;;27.80;44.40;;;;;;5002392;28;20513;-74
2022/07/03 09:42:01;;;;;;;25.80;24.40;;;27.90;43.70;;;;;;5005298;28;20465;-71
2022/07/03 09:44:37;;;;;;;26.40;24.90;;;28.00;45.50;;;;;;5004979;28;20603;-72
2022/07/03 09:47:13;;;;;;;26.20;24.70;;;28.10;44.60;;;;;;5005707;28;20515;-72
2022/07/03 09:49:47;;;;;;;26.77;25.30;;;28.20;42.90;;;;;;5007645;28;20471;-71
2022/07/03 09:52:28;;;;;;;25.90;24.40;;;27.90;44.50;;;;;;5004963;28;20469;-71
2022/07/03 09:54:56;;;;;;;27.37;25.77;;;27.90;45.10;;;;;;5007628;28;20504;-72
2022/07/03 09:57:23;;;;;;;27.13;25.57;;;28.00;45.30;;;;;;5004238;28;20488;-72
2022/07/03 10:00:13;;;;;;;27.17;25.57;;;28.00;44.90;;;;;;5004179;28;20527;-71
2022/07/03 10:03:03;;;;;;;27.77;26.27;;;28.00;44.60;;;;;;5003376;28;20540;-72
2022/07/03 10:05:32;;;;;;;26.23;24.67;;;28.00;45.30;;;;;;4998986;28;20503;-70
2022/07/03 10:08:00;;;;;;;28.00;26.40;;;28.10;44.70;;;;;;5004029;28;20609;-69
2022/07/03 10:10:29;;;;;;;26.00;24.50;;;28.20;45.50;;;;;;5003943;28;20477;-76
2022/07/03 10:12:57;;;;;;;26.50;25.00;;;28.30;45.60;;;;;;5005571;28;20576;-71
2022/07/03 10:15:26;;;;;;;26.80;25.23;;;28.40;46.30;;;;;;5004299;28;20457;-75
2022/07/03 10:17:56;;;;;;;28.27;26.67;;;28.40;47.00;;;;;;5006244;28;20476;-72
2022/07/03 10:20:28;;;;;;;26.00;24.40;;;28.50;46.40;;;;;;5000282;28;20469;-73
2022/07/03 10:22:56;;;;;;;27.93;26.33;;;28.50;44.80;;;;;;5005031;28;20552;-72
2022/07/03 10:25:23;;;;;;;27.40;25.80;;;28.50;45.20;;;;;;5004171;28;20479;-70
2022/07/03 10:27:51;;;;;;;27.30;25.60;;;28.60;44.10;;;;;;5004622;28;20564;-72
2022/07/03 10:30:20;;;;;;;27.87;26.33;;;28.70;44.10;;;;;;5005129;28;20465;-72
2022/07/03 10:32:49;;;;;;;27.93;26.00;;;28.60;45.00;;;;;;5006655;28;20525;-75
2022/07/03 10:35:20;;;;;;;26.40;24.90;;;28.60;45.30;;;;;;5006145;28;20449;-70
2022/07/03 10:37:59;;;;;;;26.67;25.17;;;28.70;45.40;;;;;;5005541;28;20481;-72
2022/07/03 10:46:14;;;;;;;29.40;27.50;;;28.40;45.80;;;;;;5003561;28;20538;-73
2022/07/03 10:48:59;;;;;;;27.57;25.97;;;28.50;46.60;;;;;;5004452;28;20663;-72
2022/07/03 10:51:27;;;;;;;27.77;26.00;;;28.70;47.10;;;;;;5003707;28;20528;-73
2022/07/03 10:54:16;;;;;;;28.60;27.00;;;28.70;46.20;;;;;;5004725;28;20480;-72
2022/07/03 10:57:08;;;;;;;26.30;24.90;;;28.80;45.10;;;;;;5004394;28;20551;-74
2022/07/03 11:00:08;;;;;;;29.67;27.90;;;28.80;46.00;;;;;;5005553;28;20557;-74
2022/07/03 11:02:37;;;;;;;27.80;26.10;;;29.00;45.20;;;;;;4923496;29;20456;-74
2022/07/03 11:05:20;;;;;;;27.60;26.10;;;29.00;46.40;;;;;;4985965;28;20560;-72
2022/07/03 11:08:09;;;;;;;26.80;25.40;;;29.10;45.30;;;;;;5001826;28;20998;-74
2022/07/03 11:10:43;;;;;;;27.10;25.60;;;29.20;45.10;;;;;;5001215;28;20555;-71
2022/07/03 11:13:22;;;;;;;26.17;24.60;;;29.30;45.10;;;;;;5002984;28;20879;-73
2022/07/03 11:15:51;;;;;;;25.97;24.43;;;29.30;44.90;;;;;;5005745;28;20822;-74
2022/07/03 11:18:21;;;;;;;26.17;24.73;;;29.40;43.70;;;;;;5000249;28;20583;-71
2022/07/03 11:21:30;;;;;;;25.87;24.47;;;29.30;43.70;;;;;;5001725;28;20457;-73
2022/07/03 11:24:36;;;;;;;26.30;24.83;;;29.10;43.70;;;;;;5004464;28;20456;-73
2022/07/03 11:27:20;;;;;;;26.90;25.30;;;29.10;43.80;;;;;;5004104;28;20573;-72
2022/07/03 11:29:53;;;;;;;28.10;26.50;;;29.10;43.20;;;;;;5002357;28;20471;-75
2022/07/03 11:32:52;;;;;;;26.93;25.43;;;29.30;43.40;;;;;;5001690;28;20473;-72
2022/07/03 11:35:48;;;;;;;27.13;25.47;;;29.30;43.70;;;;;;5004372;28;21328;-72
2022/07/03 11:38:28;;;;;;;26.40;24.93;;;29.20;44.80;;;;;;5003501;28;20491;-74
2022/07/03 11:40:57;;;;;;;26.20;24.70;;;29.30;44.20;;;;;;5002867;28;20469;-72
2022/07/03 11:43:24;;;;;;;27.10;25.60;;;29.30;44.60;;;;;;5004929;28;20571;-71
2022/07/03 11:45:52;;;;;;;27.30;25.80;;;29.30;44.00;;;;;;5004489;28;20477;-71
2022/07/03 11:48:20;;;;;;;27.03;25.53;;;29.30;44.50;;;;;;5005854;28;20564;-74
2022/07/03 11:50:48;;;;;;;28.70;26.80;;;29.40;44.70;;;;;;5001870;28;20580;-74
2022/07/03 11:53:22;;;;;;;26.60;25.13;;;29.70;44.80;;;;;;5006143;28;20906;-73
2022/07/03 11:55:50;;;;;;;26.67;25.07;;;29.70;43.20;;;;;;5007538;28;20459;-73
2022/07/03 11:58:18;;;;;;;26.87;25.37;;;29.80;43.80;;;;;;5009379;28;20945;-74
2022/07/03 12:00:45;;;;;;;28.33;26.70;;;29.90;44.90;;;;;;5004737;28;20965;-74
2022/07/03 12:03:16;;;;;;;28.93;27.23;;;30.00;45.10;;;;;;5006270;28;20464;-74
2022/07/03 12:05:58;;;;;;;26.90;25.30;;;30.10;44.70;;;;;;5009082;28;20569;-73
2022/07/03 12:08:29;;;;;;;26.40;25.00;;;30.20;44.40;;;;;;5007535;28;20581;-73
2022/07/03 12:11:01;;;;;;;27.57;25.97;;;30.30;43.60;;;;;;5007709;28;20457;-72
2022/07/03 12:13:30;;;;;;;28.10;26.23;;;30.50;43.60;;;;;;5004527;28;20501;-71
2022/07/03 12:16:08;;;;;;;26.87;25.37;;;30.70;43.20;;;;;;5008709;28;21023;-73
2022/07/03 12:18:43;;;;;;;26.27;24.70;;;30.80;42.50;;;;;;5003238;28;20500;-74
2022/07/03 12:21:10;;;;;;;27.80;26.30;;;30.60;42.20;;;;;;5008182;28;20463;-73
2022/07/03 12:23:44;;;;;;;26.40;24.90;;;30.50;42.90;;;;;;5005546;28;20499;-73
2022/07/03 12:26:12;;;;;;;27.17;25.67;;;30.60;43.70;;;;;;5003990;28;20489;-74
2022/07/03 12:28:40;;;;;;;27.47;25.70;;;30.60;44.00;;;;;;5008604;28;20491;-73
2022/07/03 12:31:08;;;;;;;28.93;27.33;;;30.70;43.50;;;;;;5007747;28;20600;-73
2022/07/03 12:33:36;;;;;;;27.30;25.60;;;30.80;43.60;;;;;;5006766;28;20500;-75
2022/07/03 12:36:04;;;;;;;27.47;25.97;;;30.90;43.00;;;;;;5009264;28;20462;-74
2022/07/03 12:38:33;;;;;;;26.40;24.90;;;30.80;42.40;;;;;;5009184;28;20493;-72
2022/07/03 12:41:06;;;;;;;26.97;25.37;;;30.90;43.30;;;;;;5006053;28;20537;-71
2022/07/03 12:43:40;;;;;;;27.17;25.67;;;31.10;41.80;;;;;;5003307;28;20485;-74
2022/07/03 12:46:21;;;;;;;27.20;25.70;;;31.10;41.90;;;;;;5005297;28;20519;-72
2022/07/03 12:48:49;;;;;;;27.10;25.60;;;31.20;41.70;;;;;;5001710;28;20584;-75
2022/07/03 12:51:17;;;;;;;28.90;27.10;;;31.40;41.80;;;;;;5008373;28;20492;-74
2022/07/03 12:53:54;;;;;;;26.50;25.00;;;31.40;41.90;;;;;;5006545;28;20580;-75
2022/07/03 12:56:23;;;;;;;26.97;25.57;;;31.30;41.10;;;;;;5008165;28;20587;-74